createdAt,value
2023-04-16T00:01:27.679Z,55.33
2023-04-16T00:03:54.824Z,61.10
2023-04-16T00:06:22.736Z,53.00
2023-04-16T00:08:49.339Z,55.58
2023-04-16T00:11:16.048Z,55.50
2023-04-16T00:13:42.814Z,55.75
2023-04-16T00:16:09.446Z,56.97
2023-04-16T00:18:36.163Z,50.17
2023-04-16T00:21:02.769Z,52.95
2023-04-16T00:23:29.396Z,51.80
2023-04-16T00:25:59.914Z,50.58
2023-04-16T00:28:27.681Z,50.08
2023-04-16T00:30:54.923Z,52.97
2023-04-16T00:33:21.637Z,54.95
2023-04-16T00:35:48.793Z,56.40
2023-04-16T00:38:15.487Z,58.05
2023-04-16T00:40:42.133Z,45.28
2023-04-16T00:43:08.781Z,54.45
2023-04-16T00:45:35.496Z,64.65
2023-04-16T00:48:02.198Z,47.25
2023-04-16T00:50:29.648Z,50.17
2023-04-16T00:52:56.860Z,47.65
2023-04-16T00:55:23.464Z,52.30
2023-04-16T00:57:49.998Z,54.90
2023-04-16T01:00:16.892Z,54.67
2023-04-16T01:02:43.613Z,50.05
2023-04-16T01:05:10.322Z,47.38
2023-04-16T01:07:36.910Z,48.38
2023-04-16T01:10:04.186Z,44.90
2023-04-16T01:12:30.754Z,46.08
2023-04-16T01:14:57.340Z,45.42
2023-04-16T01:17:23.981Z,46.50
2023-04-16T01:19:50.753Z,48.88
2023-04-16T01:22:17.347Z,53.17
2023-04-16T01:24:43.962Z,48.95
2023-04-16T01:27:10.827Z,50.05
2023-04-16T01:29:37.438Z,43.17
2023-04-16T01:32:04.030Z,43.45
2023-04-16T01:34:30.632Z,40.70
2023-04-16T01:36:57.216Z,42.30
2023-04-16T01:39:23.776Z,44.63
2023-04-16T01:41:50.422Z,42.28
2023-04-16T01:44:16.993Z,40.10
2023-04-16T01:46:44.135Z,41.20
2023-04-16T01:49:11.233Z,38.97
2023-04-16T01:51:38.034Z,43.67
2023-04-16T01:54:04.794Z,41.97
2023-04-16T01:56:31.347Z,39.17
2023-04-16T01:58:58.071Z,41.25
2023-04-16T02:01:24.893Z,46.47
2023-04-16T02:03:52.031Z,41.90
2023-04-16T02:06:18.873Z,49.50
2023-04-16T02:08:45.425Z,43.05
2023-04-16T02:11:11.976Z,45.17
2023-04-16T02:13:38.572Z,41.75
2023-04-16T02:16:05.566Z,45.42
2023-04-16T02:18:32.370Z,45.30
2023-04-16T02:21:00.194Z,48.67
2023-04-16T02:23:26.831Z,49.65
2023-04-16T02:25:53.437Z,41.90
2023-04-16T02:28:20.110Z,43.25
2023-04-16T02:30:46.749Z,44.13
2023-04-16T02:33:13.449Z,42.35
2023-04-16T02:35:40.712Z,46.15
2023-04-16T02:38:07.845Z,43.50
2023-04-16T02:40:34.456Z,48.25
2023-04-16T02:43:01.168Z,45.80
2023-04-16T02:45:27.947Z,49.85
2023-04-16T02:47:54.594Z,50.28
2023-04-16T02:50:21.345Z,52.30
2023-04-16T02:52:48.583Z,52.58
2023-04-16T02:55:15.377Z,55.13
2023-04-16T02:57:42.701Z,53.83
2023-04-16T03:00:10.038Z,51.20
2023-04-16T03:02:36.806Z,51.30
2023-04-16T03:05:04.037Z,49.65
2023-04-16T03:07:30.750Z,49.20
2023-04-16T03:09:57.306Z,51.33
2023-04-16T03:12:23.899Z,57.30
2023-04-16T03:14:52.543Z,51.58
2023-04-16T03:17:19.256Z,55.65
2023-04-16T03:19:46.206Z,54.47
2023-04-16T03:22:12.928Z,52.35
2023-04-16T03:24:39.535Z,54.20
2023-04-16T03:27:06.112Z,51.42
2023-04-16T03:29:32.672Z,54.17
2023-04-16T03:31:59.239Z,51.22
2023-04-16T03:34:25.946Z,49.60
2023-04-16T03:36:52.556Z,52.42
2023-04-16T03:39:19.141Z,51.42
2023-04-16T03:41:45.690Z,53.75
2023-04-16T03:44:12.272Z,50.33
2023-04-16T03:46:38.846Z,50.80
2023-04-16T03:49:05.711Z,54.00
2023-04-16T03:51:32.356Z,53.03
2023-04-16T03:53:58.912Z,54.45
2023-04-16T03:56:25.640Z,47.88
2023-04-16T03:58:52.225Z,51.85
2023-04-16T04:01:18.947Z,56.13
2023-04-16T04:03:45.751Z,55.20
2023-04-16T04:06:12.600Z,53.22
2023-04-16T04:08:39.214Z,56.10
2023-04-16T04:11:05.779Z,59.33
2023-04-16T04:13:32.369Z,56.83
2023-04-16T04:15:58.991Z,53.25
2023-04-16T04:18:25.713Z,51.72
2023-04-16T04:20:52.654Z,49.28
2023-04-16T04:23:19.295Z,55.22
2023-04-16T04:25:46.078Z,51.92
2023-04-16T04:28:12.748Z,52.80
2023-04-16T04:30:39.325Z,53.20
2023-04-16T04:33:06.348Z,54.15
2023-04-16T04:35:33.606Z,49.88
2023-04-16T04:38:01.876Z,51.22
2023-04-16T04:40:29.175Z,52.65
2023-04-16T04:42:55.809Z,54.13
2023-04-16T04:45:25.480Z,56.38
2023-04-16T04:47:55.376Z,51.53
2023-04-16T04:50:22.438Z,57.70
2023-04-16T04:52:49.004Z,54.60
2023-04-16T04:55:16.160Z,54.17
2023-04-16T04:57:42.791Z,49.75
2023-04-16T05:00:10.059Z,54.97
2023-04-16T05:02:36.661Z,46.25
2023-04-16T05:05:04.063Z,51.20
2023-04-16T05:07:30.856Z,53.05
2023-04-16T05:09:57.446Z,50.55
2023-04-16T05:12:24.202Z,55.88
2023-04-16T05:14:50.884Z,50.28
2023-04-16T05:17:17.664Z,45.05
2023-04-16T05:19:44.218Z,50.53
2023-04-16T05:22:10.768Z,47.17
2023-04-16T05:24:37.328Z,50.88
2023-04-16T05:27:04.089Z,47.55
2023-04-16T05:29:30.656Z,50.22
2023-04-16T05:31:57.252Z,45.38
2023-04-16T05:34:23.813Z,46.25
2023-04-16T05:36:50.385Z,49.92
2023-04-16T05:39:17.200Z,52.25
2023-04-16T05:41:43.733Z,47.47
2023-04-16T05:44:10.289Z,44.00
2023-04-16T05:46:37.078Z,46.58
2023-04-16T05:49:04.005Z,47.00
2023-04-16T05:51:30.564Z,46.30
2023-04-16T05:53:57.142Z,49.85
2023-04-16T05:56:25.802Z,48.40
2023-04-16T05:58:52.397Z,45.50
2023-04-16T06:01:18.932Z,47.92
2023-04-16T06:03:45.694Z,47.53
2023-04-16T06:06:12.423Z,44.33
2023-04-16T06:08:38.998Z,44.95
2023-04-16T06:11:05.972Z,51.95
2023-04-16T06:13:32.508Z,50.20
2023-04-16T06:15:59.096Z,46.92
2023-04-16T06:18:25.688Z,43.05
2023-04-16T06:20:52.616Z,43.50
2023-04-16T06:23:19.187Z,45.42
2023-04-16T06:25:45.801Z,42.92
2023-04-16T06:28:12.390Z,44.97
2023-04-16T06:30:39.350Z,46.50
2023-04-16T06:33:05.976Z,42.20
2023-04-16T06:35:32.611Z,48.50
2023-04-16T06:37:59.212Z,43.53
2023-04-16T06:40:26.949Z,42.22
2023-04-16T06:42:53.959Z,39.72
2023-04-16T06:45:20.536Z,42.50
2023-04-16T06:47:48.151Z,39.90
2023-04-16T06:50:14.927Z,42.15
2023-04-16T06:52:41.570Z,39.15
2023-04-16T06:55:09.821Z,39.40
2023-04-16T06:57:37.656Z,36.17
2023-04-16T07:00:08.051Z,40.03
2023-04-16T07:02:35.225Z,40.47
2023-04-16T07:05:02.042Z,37.08
2023-04-16T07:07:28.623Z,41.85
2023-04-16T07:09:55.196Z,39.17
2023-04-16T07:12:22.744Z,41.83
2023-04-16T07:14:49.674Z,38.30
2023-04-16T07:17:16.270Z,37.58
2023-04-16T07:19:42.802Z,39.55
2023-04-16T07:22:09.398Z,39.67
2023-04-16T07:24:36.630Z,37.15
2023-04-16T07:27:03.220Z,42.63
2023-04-16T07:29:29.994Z,40.90
2023-04-16T07:31:57.490Z,39.10
2023-04-16T07:34:24.135Z,38.83
2023-04-16T07:36:51.738Z,40.22
2023-04-16T07:39:18.302Z,35.27
2023-04-16T07:41:44.923Z,36.72
2023-04-16T07:44:11.495Z,37.83
2023-04-16T07:46:46.421Z,38.80
2023-04-16T07:49:14.397Z,38.25
2023-04-16T07:51:41.106Z,39.00
2023-04-16T07:54:07.715Z,37.75
2023-04-16T07:56:34.310Z,35.70
2023-04-16T07:59:07.972Z,34.30
2023-04-16T08:01:41.460Z,37.53
2023-04-16T08:04:08.231Z,36.83
2023-04-16T08:06:34.906Z,38.22
2023-04-16T08:09:01.474Z,33.97
2023-04-16T08:11:28.402Z,37.22
2023-04-16T08:13:55.034Z,39.00
2023-04-16T08:16:21.682Z,33.42
2023-04-16T08:18:48.413Z,34.78
2023-04-16T08:21:14.992Z,33.08
2023-04-16T08:23:41.633Z,33.22
2023-04-16T08:26:08.209Z,31.88
2023-04-16T08:28:34.977Z,34.70
2023-04-16T08:31:01.657Z,34.40
2023-04-16T08:33:28.568Z,31.45
2023-04-16T08:35:55.165Z,35.47
2023-04-16T08:38:21.726Z,32.25
2023-04-16T08:40:48.803Z,30.63
2023-04-16T08:43:16.344Z,34.60
2023-04-16T08:45:43.928Z,33.22
2023-04-16T08:48:12.076Z,35.83
2023-04-16T08:50:38.876Z,35.80
2023-04-16T08:53:06.728Z,30.83
2023-04-16T08:55:38.512Z,31.13
2023-04-16T08:58:14.682Z,31.73
2023-04-16T09:00:41.835Z,32.33
2023-04-16T09:03:09.831Z,31.27
2023-04-16T09:05:36.708Z,33.15
2023-04-16T09:08:05.609Z,27.80
2023-04-16T09:10:32.507Z,29.05
2023-04-16T09:12:59.085Z,31.05
2023-04-16T09:15:26.020Z,30.55
2023-04-16T09:17:53.161Z,34.65
2023-04-16T09:20:20.823Z,33.35
2023-04-16T09:22:47.571Z,31.13
2023-04-16T09:25:14.453Z,31.77
2023-04-16T09:27:41.085Z,29.67
2023-04-16T09:30:24.205Z,33.42
2023-04-16T09:32:52.481Z,31.30
2023-04-16T09:35:19.944Z,31.70
2023-04-16T09:37:58.845Z,30.42
2023-04-16T09:40:27.392Z,27.52
2023-04-16T09:45:23.411Z,25.30
2023-04-16T09:47:50.170Z,29.25
2023-04-16T09:50:18.945Z,28.92
2023-04-16T09:52:48.692Z,28.60
2023-04-16T09:55:15.462Z,35.67
2023-04-16T09:57:42.030Z,25.65
2023-04-16T10:00:10.277Z,29.80
2023-04-16T10:02:41.739Z,26.90
2023-04-16T10:05:09.256Z,30.63
2023-04-16T10:07:37.071Z,31.33
2023-04-16T10:10:04.507Z,33.38
2023-04-16T10:12:32.724Z,34.13
2023-04-16T10:14:59.407Z,32.65
2023-04-16T10:17:27.366Z,38.55
2023-04-16T10:19:54.747Z,31.55
2023-04-16T10:22:21.409Z,36.08
2023-04-16T10:24:49.104Z,29.23
2023-04-16T10:27:17.267Z,35.23
2023-04-16T10:29:44.572Z,30.08
2023-04-16T10:32:11.319Z,30.58
2023-04-16T10:34:37.973Z,35.83
2023-04-16T10:37:04.711Z,45.33
2023-04-16T10:39:32.988Z,31.67
2023-04-16T10:42:12.470Z,31.67
2023-04-16T10:44:43.485Z,29.55
2023-04-16T10:47:12.775Z,31.45
2023-04-16T10:49:40.321Z,30.50
2023-04-16T10:52:17.159Z,32.08
2023-04-16T10:54:43.869Z,33.10
2023-04-16T10:57:16.154Z,33.22
2023-04-16T10:59:43.820Z,33.00
2023-04-16T11:02:15.305Z,33.20
2023-04-16T11:04:49.325Z,34.47
2023-04-16T11:07:20.659Z,31.83
2023-04-16T11:09:54.580Z,29.33
2023-04-16T11:12:27.261Z,31.17
2023-04-16T11:14:55.493Z,32.03
2023-04-16T11:17:22.508Z,28.63
2023-04-16T11:19:49.308Z,32.40
2023-04-16T11:22:17.402Z,28.55
2023-04-16T11:24:45.707Z,33.90
2023-04-16T11:27:16.646Z,36.55
2023-04-16T11:29:45.068Z,27.60
2023-04-16T11:32:21.380Z,30.77
2023-04-16T11:34:48.047Z,26.00
2023-04-16T11:37:14.661Z,33.58
2023-04-16T11:39:51.509Z,27.92
2023-04-16T11:42:22.928Z,24.13
2023-04-16T11:44:56.754Z,27.52
2023-04-16T11:47:24.587Z,29.75
2023-04-16T11:49:51.598Z,22.98
2023-04-16T11:52:35.341Z,24.35
2023-04-16T11:55:02.753Z,25.33
2023-04-16T12:00:02.229Z,25.75
2023-04-16T12:02:42.948Z,23.13
2023-04-16T12:05:32.718Z,23.02
2023-04-16T12:08:04.576Z,22.92
2023-04-16T12:10:36.596Z,29.38
2023-04-16T12:13:18.728Z,26.55
2023-04-16T12:15:53.291Z,22.90
2023-04-16T12:18:22.493Z,27.67
2023-04-16T12:20:51.096Z,26.00
2023-04-16T12:23:29.180Z,22.48
2023-04-16T12:25:59.654Z,23.95
2023-04-16T12:28:34.914Z,26.13
2023-04-16T12:31:02.602Z,27.23
2023-04-16T12:33:29.785Z,24.45
2023-04-16T12:35:56.521Z,28.05
2023-04-16T12:38:24.609Z,26.73
2023-04-16T12:40:51.899Z,26.33
2023-04-16T12:43:19.872Z,27.25
2023-04-16T12:45:46.582Z,23.38
2023-04-16T12:48:13.266Z,20.73
2023-04-16T12:50:40.215Z,21.83
2023-04-16T12:53:06.844Z,23.95
2023-04-16T12:55:33.508Z,26.65
2023-04-16T12:58:00.066Z,41.35
2023-04-16T13:00:26.705Z,25.73
2023-04-16T13:02:53.395Z,21.08
2023-04-16T13:05:20.124Z,20.50
2023-04-16T13:07:46.785Z,23.63
2023-04-16T13:10:13.816Z,18.08
2023-04-16T13:12:40.657Z,22.00
2023-04-16T13:15:07.862Z,19.48
2023-04-16T13:17:34.491Z,25.25
2023-04-16T13:20:01.127Z,23.15
2023-04-16T13:22:27.804Z,23.30
2023-04-16T13:24:54.434Z,19.60
2023-04-16T13:27:20.984Z,22.20
2023-04-16T13:29:47.526Z,23.52
2023-04-16T13:32:14.836Z,21.75
2023-04-16T13:34:41.601Z,23.52
2023-04-16T13:37:08.254Z,22.98
2023-04-16T13:39:34.877Z,20.20
2023-04-16T13:42:01.906Z,20.70
2023-04-16T13:44:28.533Z,20.77
2023-04-16T13:46:56.177Z,22.02
2023-04-16T13:49:23.484Z,25.13
2023-04-16T13:51:50.262Z,24.15
2023-04-16T13:54:16.842Z,21.33
2023-04-16T13:56:43.961Z,21.85
2023-04-16T13:59:11.020Z,20.63
2023-04-16T14:01:37.949Z,18.40
2023-04-16T14:04:06.831Z,19.00
2023-04-16T14:06:34.442Z,22.10
2023-04-16T14:09:01.310Z,20.27
2023-04-16T14:11:28.011Z,20.55
2023-04-16T14:13:54.827Z,22.10
2023-04-16T14:16:21.583Z,19.85
2023-04-16T14:18:48.255Z,18.92
2023-04-16T14:21:14.945Z,18.40
2023-04-16T14:23:41.553Z,19.90
2023-04-16T14:26:08.486Z,19.92
2023-04-16T14:28:35.741Z,19.90
2023-04-16T14:31:02.363Z,20.58
2023-04-16T14:33:29.083Z,18.67
2023-04-16T14:35:55.790Z,18.00
2023-04-16T14:38:22.403Z,19.65
2023-04-16T14:40:49.082Z,20.88
2023-04-16T14:43:15.724Z,19.65
2023-04-16T14:45:42.336Z,19.35
2023-04-16T14:48:09.010Z,19.50
2023-04-16T14:50:39.087Z,22.08
2023-04-16T14:53:05.978Z,21.00
2023-04-16T14:55:32.718Z,18.85
2023-04-16T14:57:59.926Z,17.45
2023-04-16T15:00:27.550Z,16.63
2023-04-16T15:02:57.792Z,17.40
2023-04-16T15:05:24.572Z,21.65
2023-04-16T15:07:51.267Z,18.05
2023-04-16T15:10:17.933Z,19.10
2023-04-16T15:12:44.582Z,19.10
2023-04-16T15:15:11.454Z,18.60
2023-04-16T15:17:38.100Z,17.17
2023-04-16T15:20:08.187Z,16.85
2023-04-16T15:22:34.906Z,20.90
2023-04-16T15:25:01.509Z,19.70
2023-04-16T15:27:28.118Z,21.58
2023-04-16T15:29:54.817Z,19.63
2023-04-16T15:32:21.716Z,16.95
2023-04-16T15:34:48.339Z,19.10
2023-04-16T15:37:16.118Z,18.58
2023-04-16T15:39:43.263Z,19.25
2023-04-16T15:42:11.193Z,19.50
2023-04-16T15:44:37.836Z,16.35
2023-04-16T15:47:06.306Z,25.55
2023-04-16T15:51:59.616Z,16.25
2023-04-16T15:54:26.325Z,15.57
2023-04-16T15:56:52.876Z,22.17
2023-04-16T15:59:19.462Z,18.70
2023-04-16T16:01:46.108Z,17.92
2023-04-16T16:04:12.777Z,17.70
2023-04-16T16:06:39.393Z,19.13
2023-04-16T16:09:06.288Z,18.65
2023-04-16T16:11:32.947Z,18.30
2023-04-16T16:14:02.823Z,17.73
2023-04-16T16:16:29.430Z,14.93
2023-04-16T16:18:56.538Z,18.25
2023-04-16T16:21:23.126Z,17.92
2023-04-16T16:23:49.698Z,17.20
2023-04-16T16:26:16.256Z,16.67
2023-04-16T16:28:44.699Z,17.02
2023-04-16T16:31:12.292Z,21.48
2023-04-16T16:33:40.482Z,18.40
2023-04-16T16:36:10.646Z,17.88
2023-04-16T16:38:37.634Z,19.02
2023-04-16T16:41:04.206Z,18.20
2023-04-16T16:43:31.060Z,21.95
2023-04-16T16:45:57.730Z,18.95
2023-04-16T16:48:24.360Z,21.38
2023-04-16T16:50:50.926Z,21.88
2023-04-16T16:53:17.566Z,23.08
2023-04-16T16:55:44.160Z,19.38
2023-04-16T16:58:11.256Z,19.63
2023-04-16T17:00:38.053Z,18.75
2023-04-16T17:03:04.959Z,19.80
2023-04-16T17:05:31.776Z,17.80
2023-04-16T17:07:58.717Z,18.60
2023-04-16T17:10:25.366Z,17.55
2023-04-16T17:12:51.993Z,18.63
2023-04-16T17:15:21.146Z,17.85
2023-04-16T17:17:48.596Z,19.27
2023-04-16T17:20:15.746Z,19.10
2023-04-16T17:22:42.808Z,19.27
2023-04-16T17:25:09.750Z,22.63
2023-04-16T17:27:36.488Z,17.90
2023-04-16T17:30:05.029Z,17.33
2023-04-16T17:35:01.910Z,20.33
2023-04-16T17:37:28.653Z,20.02
2023-04-16T17:39:55.503Z,18.80
2023-04-16T17:42:22.156Z,29.30
2023-04-16T17:44:48.718Z,20.58
2023-04-16T17:47:15.330Z,22.83
2023-04-16T17:49:41.970Z,20.85
2023-04-16T17:52:08.564Z,40.15
2023-04-16T17:54:35.282Z,31.88
2023-04-16T17:57:02.185Z,25.98
2023-04-16T17:59:29.041Z,25.80
2023-04-16T18:01:56.629Z,33.60
2023-04-16T18:04:23.656Z,26.98
2023-04-16T18:06:50.531Z,35.50
2023-04-16T18:09:17.840Z,32.20
2023-04-16T18:11:44.439Z,36.25
2023-04-16T18:14:13.838Z,89.43
2023-04-16T18:16:41.840Z,34.47
2023-04-16T18:19:08.631Z,26.20
2023-04-16T18:21:35.753Z,28.80
2023-04-16T18:24:03.534Z,30.08
2023-04-16T18:26:30.260Z,24.77
2023-04-16T18:28:57.064Z,26.83
2023-04-16T18:31:23.802Z,28.48
2023-04-16T18:33:57.307Z,27.88
2023-04-16T18:36:26.085Z,30.08
2023-04-16T18:39:01.601Z,25.88
2023-04-16T18:41:28.726Z,28.13
2023-04-16T18:43:55.384Z,29.00
2023-04-16T18:46:22.013Z,28.80
2023-04-16T18:48:48.628Z,28.83
2023-04-16T18:51:16.543Z,25.98
2023-04-16T18:53:45.453Z,27.38
2023-04-16T18:56:12.344Z,30.20
2023-04-16T18:58:39.000Z,30.67
2023-04-16T19:01:10.927Z,28.17
2023-04-16T19:03:38.045Z,36.47
2023-04-16T19:06:04.975Z,30.60
2023-04-16T19:08:31.764Z,29.70
2023-04-16T19:10:58.421Z,33.00
2023-04-16T19:13:25.009Z,34.10
2023-04-16T19:15:51.615Z,32.45
2023-04-16T19:18:18.222Z,36.00
2023-04-16T19:20:44.840Z,30.30
2023-04-16T19:23:11.577Z,32.92
2023-04-16T19:25:39.511Z,30.67
2023-04-16T19:28:06.102Z,32.58
2023-04-16T19:30:32.749Z,33.65
2023-04-16T19:32:59.363Z,29.48
2023-04-16T19:35:25.956Z,32.08
2023-04-16T19:37:52.742Z,31.40
2023-04-16T19:40:19.402Z,30.75
2023-04-16T19:42:45.989Z,32.58
2023-04-16T19:45:12.664Z,31.08
2023-04-16T19:47:39.246Z,28.42
2023-04-16T19:50:06.506Z,30.83
2023-04-16T19:52:38.678Z,27.40
2023-04-16T19:55:06.623Z,27.33
2023-04-16T19:57:33.269Z,27.02
2023-04-16T19:59:59.917Z,28.77
2023-04-16T20:02:26.577Z,30.42
2023-04-16T20:04:53.346Z,30.13
2023-04-16T20:07:20.579Z,30.23
2023-04-16T20:09:47.256Z,29.98
2023-04-16T20:12:14.430Z,30.67
2023-04-16T20:14:41.966Z,27.65
2023-04-16T20:17:10.246Z,27.65
2023-04-16T20:19:40.174Z,30.73
2023-04-16T20:22:06.760Z,29.13
2023-04-16T20:24:33.388Z,25.27
2023-04-16T20:26:59.973Z,29.38
2023-04-16T20:29:27.066Z,31.10
2023-04-16T20:31:53.681Z,31.25
2023-04-16T20:34:20.291Z,39.83
2023-04-16T20:36:46.852Z,31.25
2023-04-16T20:39:13.628Z,33.78
2023-04-16T20:41:43.764Z,26.23
2023-04-16T20:44:18.043Z,33.15
2023-04-16T20:46:49.593Z,32.42
2023-04-16T20:49:17.738Z,26.30
2023-04-16T20:51:44.416Z,27.17
2023-04-16T20:54:11.085Z,26.48
2023-04-16T20:56:37.635Z,26.17
2023-04-16T20:59:04.324Z,27.77
2023-04-16T21:01:30.978Z,23.52
2023-04-16T21:03:57.690Z,26.65
2023-04-16T21:06:24.415Z,31.58
2023-04-16T21:08:51.102Z,24.45
2023-04-16T21:11:17.692Z,25.85
2023-04-16T21:13:44.397Z,24.20
2023-04-16T21:16:12.521Z,23.88
2023-04-16T21:18:39.279Z,24.10
2023-04-16T21:21:06.095Z,23.70
2023-04-16T21:23:32.688Z,23.88
2023-04-16T21:25:59.280Z,23.02
2023-04-16T21:28:25.933Z,24.33
2023-04-16T21:30:52.798Z,25.52
2023-04-16T21:33:19.430Z,27.50
2023-04-16T21:35:52.111Z,21.30
2023-04-16T21:38:19.370Z,23.30
2023-04-16T21:40:50.441Z,22.38
2023-04-16T21:43:17.941Z,24.65
2023-04-16T21:45:44.584Z,21.73
2023-04-16T21:48:11.295Z,21.40
2023-04-16T21:50:38.353Z,24.67
2023-04-16T21:53:06.512Z,22.17
2023-04-16T21:55:34.747Z,23.80
2023-04-16T21:58:04.301Z,28.27
2023-04-16T22:00:30.850Z,22.02
2023-04-16T22:03:00.267Z,24.80
2023-04-16T22:05:27.113Z,22.50
2023-04-16T22:07:53.653Z,22.60
2023-04-16T22:10:20.378Z,23.75
2023-04-16T22:12:46.963Z,22.45
2023-04-16T22:15:13.881Z,23.45
2023-04-16T22:17:40.966Z,28.05
2023-04-16T22:20:14.688Z,28.90
2023-04-16T22:22:42.143Z,32.08
2023-04-16T22:25:09.446Z,27.15
2023-04-16T22:27:36.585Z,27.80
2023-04-16T22:30:04.121Z,29.10
2023-04-16T22:32:31.030Z,29.85
2023-04-16T22:34:57.702Z,25.25
2023-04-16T22:37:24.288Z,25.30
2023-04-16T22:39:50.876Z,27.17
2023-04-16T22:42:17.434Z,28.27
2023-04-16T22:44:43.994Z,29.88
2023-04-16T22:47:10.572Z,27.63
2023-04-16T22:49:37.188Z,33.15
2023-04-16T22:52:03.892Z,27.98
2023-04-16T22:54:31.279Z,28.45
2023-04-16T22:56:58.049Z,33.38
2023-04-16T22:59:25.047Z,31.95
2023-04-16T23:01:52.115Z,32.63
2023-04-16T23:04:18.859Z,33.83
2023-04-16T23:06:46.310Z,35.58
2023-04-16T23:09:13.168Z,32.05
2023-04-16T23:11:40.009Z,28.65
2023-04-16T23:14:07.673Z,30.65
2023-04-16T23:16:34.259Z,29.67
2023-04-16T23:19:00.983Z,31.85
2023-04-16T23:21:27.527Z,32.28
2023-04-16T23:23:54.404Z,31.45
2023-04-16T23:26:20.963Z,30.45
2023-04-16T23:28:47.551Z,33.05
2023-04-16T23:31:14.208Z,32.75
2023-04-16T23:33:40.801Z,35.92
2023-04-16T23:36:07.973Z,28.35
2023-04-16T23:38:34.535Z,30.25
2023-04-16T23:41:01.190Z,28.50
2023-04-16T23:43:27.797Z,30.42
2023-04-16T23:45:54.411Z,30.35
2023-04-16T23:48:21.049Z,27.95
2023-04-16T23:50:47.649Z,33.75
2023-04-16T23:53:14.322Z,32.05
2023-04-16T23:55:40.892Z,33.08
2023-04-16T23:58:07.501Z,33.72
